Time;durP1;ratioP1;P1;durP2;ratioP2;P2;SDS_P1;SDS_P2;PMS_P1;PMS_P2;Temp;Humidity;BMP_temperature;BMP_pressure;BME280_temperature;BME280_humidity;BME280_pressure;Samples;Min_cycle;Max_cycle;Signal;HPM_P1;HPM_P2
2023/06/12 00:00:07;;;;;;;3.28;1.77;;;;;;;19.70;47.60;99411.72;4346209;32;33746;-61
2023/06/12 00:02:35;;;;;;;3.30;1.17;;;;;;;20.02;46.95;99407.91;4360211;32;33930;-60
2023/06/12 00:05:04;;;;;;;2.58;1.33;;;;;;;19.66;46.62;99415.84;4357923;32;33289;-60
2023/06/12 00:07:31;;;;;;;2.80;2.00;;;;;;;19.40;47.23;99411.56;4353362;32;34736;-60
2023/06/12 00:09:59;;;;;;;2.58;1.23;;;;;;;19.66;46.74;99413.97;4357971;32;33961;-60
2023/06/12 00:12:27;;;;;;;3.65;1.90;;;;;;;19.84;46.98;99412.78;4358610;32;33582;-60
2023/06/12 00:14:54;;;;;;;3.30;1.98;;;;;;;19.70;46.12;99417.16;4356519;32;34575;-60
2023/06/12 00:17:21;;;;;;;4.50;2.05;;;;;;;19.86;45.33;99406.16;4359768;32;34448;-60
2023/06/12 00:19:49;;;;;;;3.08;1.65;;;;;;;19.83;46.58;99411.97;4359631;32;33812;-60
2023/06/12 00:22:17;;;;;;;5.90;1.52;;;;;;;19.88;46.04;99401.41;4359632;32;34102;-60
2023/06/12 00:24:44;;;;;;;3.15;1.58;;;;;;;20.12;44.61;99389.47;4357778;32;33170;-60
2023/06/12 00:27:12;;;;;;;3.35;1.77;;;;;;;19.31;46.74;99396.38;4358842;32;35011;-60
2023/06/12 00:29:39;;;;;;;2.05;1.17;;;;;;;19.62;46.37;99401.75;4358206;32;34677;-60
2023/06/12 00:32:07;;;;;;;8.25;1.85;;;;;;;19.85;45.82;99403.66;4356736;32;33981;-60
2023/06/12 00:34:35;;;;;;;2.72;1.52;;;;;;;20.02;45.37;99400.59;4357917;32;34157;-60
2023/06/12 00:37:03;;;;;;;3.83;1.87;;;;;;;20.34;44.28;99400.47;4356381;32;34461;-60
2023/06/12 00:39:32;;;;;;;3.75;1.62;;;;;;;20.05;44.72;99401.25;4354198;32;35284;-60
2023/06/12 00:41:59;;;;;;;6.97;1.70;;;;;;;20.19;44.79;99400.44;4358371;32;33147;-61
2023/06/12 00:44:27;;;;;;;2.10;1.65;;;;;;;20.03;44.59;99396.00;4359210;32;34129;-60
2023/06/12 00:46:55;;;;;;;4.35;2.15;;;;;;;19.58;46.01;99399.56;4357225;32;33622;-61
2023/06/12 00:49:23;;;;;;;3.47;1.50;;;;;;;20.41;44.56;99396.78;4359769;32;33644;-60
2023/06/12 00:51:52;;;;;;;2.80;1.62;;;;;;;20.28;44.05;99403.91;4359467;32;33914;-60
2023/06/12 00:54:19;;;;;;;2.47;1.45;;;;;;;20.57;43.96;99401.25;4359949;32;32571;-60
2023/06/12 00:56:48;;;;;;;3.33;1.40;;;;;;;20.36;44.65;99401.13;4358967;32;33776;-60
2023/06/12 00:59:16;;;;;;;2.58;1.62;;;;;;;20.35;45.57;99397.56;4359728;32;35121;-60
2023/06/12 01:01:44;;;;;;;6.00;1.92;;;;;;;20.47;44.36;99400.66;4356527;32;33976;-60
2023/06/12 01:04:12;;;;;;;4.53;1.80;;;;;;;20.57;44.05;99395.81;4356099;32;34125;-60
2023/06/12 01:07:07;;;;;;;3.55;2.10;;;;;;;20.80;43.58;99401.16;4355950;32;34526;-60
2023/06/12 01:10:10;;;;;;;4.28;2.40;;;;;;;20.73;43.24;99397.50;4356482;32;33987;-60
2023/06/12 01:12:39;;;;;;;4.47;2.08;;;;;;;20.46;43.90;99388.09;4283247;33;33680;-60
2023/06/12 01:15:07;;;;;;;3.40;1.73;;;;;;;20.68;43.52;99387.19;4299708;33;33251;-61
2023/06/12 01:17:35;;;;;;;5.20;2.08;;;;;;;20.92;43.23;99388.75;4297660;33;33586;-60
2023/06/12 01:20:05;;;;;;;2.62;1.40;;;;;;;20.68;43.39;99387.19;4297845;33;33802;-60
2023/06/12 01:22:36;;;;;;;2.15;1.60;;;;;;;20.67;44.15;99390.94;4296778;33;33497;-60
2023/06/12 01:25:13;;;;;;;3.97;1.83;;;;;;;20.78;43.91;99386.91;4296331;33;33383;-61
2023/06/12 01:27:53;;;;;;;2.83;1.65;;;;;;;20.86;43.43;99389.50;4293904;33;34708;-61
2023/06/12 01:30:54;;;;;;;2.85;1.50;;;;;;;20.94;43.41;99391.28;4296006;33;34892;-61
2023/06/12 01:33:33;;;;;;;2.67;1.50;;;;;;;21.16;42.91;99384.84;4281944;33;35137;-61
2023/06/12 01:36:01;;;;;;;3.58;1.60;;;;;;;20.69;43.90;99380.72;4281210;33;33376;-61
2023/06/12 01:38:32;;;;;;;2.83;1.45;;;;;;;20.94;44.08;99389.41;4282812;33;33760;-61
2023/06/12 01:41:00;;;;;;;2.33;1.50;;;;;;;21.10;42.79;99387.50;4277423;33;34364;-61
2023/06/12 01:43:28;;;;;;;3.53;1.87;;;;;;;21.18;42.45;99392.81;4283620;33;34100;-61
2023/06/12 01:45:56;;;;;;;3.45;1.70;;;;;;;20.82;43.33;99393.63;4281772;33;32982;-62
2023/06/12 01:48:24;;;;;;;2.83;1.50;;;;;;;21.05;42.70;99398.94;4291424;33;33707;-62
2023/06/12 01:50:52;;;;;;;3.08;1.67;;;;;;;21.23;41.91;99398.53;4327191;33;32340;-61
2023/06/12 01:53:20;;;;;;;3.37;1.80;;;;;;;21.27;42.04;99397.13;4328438;33;34443;-61
2023/06/12 01:55:49;;;;;;;7.60;2.25;;;;;;;21.17;41.91;99402.03;4324724;33;34127;-61
2023/06/12 01:58:17;;;;;;;3.37;1.20;;;;;;;21.32;41.50;99410.16;4316083;33;34649;-61
2023/06/12 02:00:46;;;;;;;2.55;1.33;;;;;;;21.09;41.73;99404.84;4327794;33;33540;-61
2023/06/12 02:03:14;;;;;;;2.62;1.35;;;;;;;20.25;44.53;99407.84;4327911;33;34809;-61
2023/06/12 02:05:41;;;;;;;2.50;1.50;;;;;;;20.94;42.59;99403.00;4326041;33;33229;-61
2023/06/12 02:08:09;;;;;;;3.72;1.67;;;;;;;21.14;41.81;99399.69;4328661;33;34667;-62
2023/06/12 02:10:37;;;;;;;2.25;1.45;;;;;;;21.09;42.03;99400.28;4348254;32;33646;-62
2023/06/12 02:13:05;;;;;;;3.97;1.40;;;;;;;21.11;42.11;99400.06;4359287;32;33983;-62
2023/06/12 02:15:34;;;;;;;5.03;1.67;;;;;;;21.00;42.84;99403.28;4361627;32;34063;-61
2023/06/12 02:18:02;;;;;;;3.03;1.52;;;;;;;20.87;42.80;99403.97;4360135;32;35086;-61
2023/06/12 02:20:30;;;;;;;5.40;1.95;;;;;;;20.85;42.50;99404.13;4360594;32;34495;-61
2023/06/12 02:22:57;;;;;;;3.47;1.80;;;;;;;20.44;43.27;99395.59;4356560;32;33390;-61
2023/06/12 02:25:25;;;;;;;2.83;1.60;;;;;;;20.52;42.98;99395.53;4358807;32;33285;-61
2023/06/12 02:27:53;;;;;;;2.08;1.37;;;;;;;20.81;43.02;99399.28;4358785;32;35055;-62
2023/06/12 02:30:20;;;;;;;5.68;1.48;;;;;;;20.69;42.65;99394.31;4360750;32;33810;-61
2023/06/12 02:32:49;;;;;;;4.12;1.77;;;;;;;20.71;42.96;99391.41;4358302;32;33983;-62
2023/06/12 02:35:17;;;;;;;4.20;1.92;;;;;;;20.41;43.80;99395.94;4357850;32;33151;-61
2023/06/12 02:37:44;;;;;;;2.83;1.85;;;;;;;20.50;43.38;99394.00;4359579;32;34421;-61
2023/06/12 02:40:12;;;;;;;3.72;2.22;;;;;;;20.44;43.39;99398.31;4360506;32;34075;-61
2023/06/12 02:42:41;;;;;;;4.90;1.65;;;;;;;20.34;43.14;99403.19;4359730;32;33905;-61
2023/06/12 02:45:08;;;;;;;2.62;1.45;;;;;;;20.68;42.87;99398.06;4358484;32;33221;-60
2023/06/12 02:47:36;;;;;;;2.05;1.20;;;;;;;20.59;43.37;99401.91;4358538;32;34995;-61
2023/06/12 02:50:06;;;;;;;2.17;1.52;;;;;;;20.29;45.36;99402.88;4359286;32;34029;-61
2023/06/12 02:52:35;;;;;;;7.90;2.30;;;;;;;20.48;43.95;99405.91;4359925;32;33727;-60
2023/06/12 02:55:02;;;;;;;2.80;1.70;;;;;;;20.60;44.21;99400.88;4357707;32;34514;-61
2023/06/12 02:57:30;;;;;;;3.55;1.67;;;;;;;20.74;42.88;99403.75;4360153;32;33326;-61
2023/06/12 02:59:58;;;;;;;2.92;1.80;;;;;;;20.54;44.02;99403.50;4359991;32;35220;-61
2023/06/12 03:02:26;;;;;;;3.87;1.90;;;;;;;20.88;42.55;99408.38;4359333;32;33579;-60
2023/06/12 03:04:54;;;;;;;2.78;1.60;;;;;;;21.00;42.52;99400.56;4352994;32;33031;-61
2023/06/12 03:07:23;;;;;;;3.17;1.30;;;;;;;20.70;43.77;99406.84;4357969;32;33761;-61
2023/06/12 03:09:50;;;;;;;3.72;1.73;;;;;;;20.77;42.97;99397.94;4359709;32;34214;-61
2023/06/12 03:12:19;;;;;;;5.18;1.95;;;;;;;20.19;44.43;99400.44;4359599;32;34349;-61
2023/06/12 03:14:49;;;;;;;4.32;1.85;;;;;;;20.48;43.18;99396.88;4359369;32;33487;-61
2023/06/12 03:17:17;;;;;;;4.35;2.22;;;;;;;20.72;43.12;99403.97;4359173;32;34964;-61
2023/06/12 03:19:45;;;;;;;7.53;1.75;;;;;;;20.70;43.15;99400.59;4357333;32;33547;-61
2023/06/12 03:22:13;;;;;;;3.72;1.92;;;;;;;20.99;43.05;99401.59;4360047;32;32813;-61
2023/06/12 03:24:41;;;;;;;5.15;2.08;;;;;;;20.28;44.17;99410.19;4358783;32;33349;-61
2023/06/12 03:27:10;;;;;;;14.13;2.83;;;;;;;20.30;43.89;99413.56;4355950;32;34157;-61
2023/06/12 03:29:37;;;;;;;3.22;1.25;;;;;;;20.57;42.94;99401.25;4345736;32;33944;-61
2023/06/12 03:32:06;;;;;;;2.35;1.45;;;;;;;20.11;43.41;99401.34;4359029;32;34289;-61
2023/06/12 03:34:36;;;;;;;5.45;2.90;;;;;;;19.78;44.09;99403.53;4356951;32;33651;-61
2023/06/12 03:37:04;;;;;;;2.20;1.50;;;;;;;20.32;43.20;99402.50;4359462;32;33651;-61
2023/06/12 03:39:32;;;;;;;3.08;2.15;;;;;;;20.29;42.40;99409.19;4359863;32;34095;-60
2023/06/12 03:42:00;;;;;;;2.20;1.42;;;;;;;18.81;45.63;99401.22;4358827;32;34143;-61
2023/06/12 03:44:28;;;;;;;2.35;1.52;;;;;;;18.52;47.17;99398.22;4359260;32;33438;-60
2023/06/12 03:46:56;;;;;;;3.58;1.45;;;;;;;18.91;45.58;99408.28;4358193;32;33631;-61
2023/06/12 03:49:24;;;;;;;1.90;1.35;;;;;;;18.97;44.98;99405.72;4359837;32;34204;-63
2023/06/12 03:51:52;;;;;;;4.97;1.70;;;;;;;18.76;45.61;99410.91;4360101;32;33863;-61
2023/06/12 03:54:20;;;;;;;2.75;1.10;;;;;;;18.97;45.67;99410.28;4358206;32;34133;-61
2023/06/12 03:56:48;;;;;;;4.28;2.55;;;;;;;18.86;45.18;99406.09;4359978;32;33803;-61
2023/06/12 03:59:16;;;;;;;3.97;1.75;;;;;;;18.71;45.95;99402.41;4358601;32;33971;-61
2023/06/12 04:01:43;;;;;;;2.67;1.52;;;;;;;18.30;48.37;99407.97;4359217;32;33963;-65
2023/06/12 04:04:11;;;;;;;3.72;2.03;;;;;;;18.03;47.27;99403.75;4358377;32;33946;-61
2023/06/12 04:06:40;;;;;;;2.95;1.67;;;;;;;18.23;47.21;99404.22;4359081;32;33736;-61
2023/06/12 04:09:15;;;;;;;4.00;2.28;;;;;;;18.53;46.08;99399.94;4358352;32;33869;-60
2023/06/12 04:11:44;;;;;;;3.20;1.42;;;;;;;18.87;45.97;99401.53;4359226;32;34907;-60
2023/06/12 04:14:12;;;;;;;3.78;1.62;;;;;;;19.27;45.17;99401.31;4359856;32;34085;-62
2023/06/12 04:16:39;;;;;;;4.32;2.10;;;;;;;18.88;46.31;99397.81;4358354;32;33488;-60
2023/06/12 04:19:08;;;;;;;3.90;2.30;;;;;;;19.72;44.39;99396.94;4355296;32;33952;-60
2023/06/12 04:21:37;;;;;;;2.50;1.77;;;;;;;19.07;45.20;99402.78;4358701;32;33862;-60
2023/06/12 04:24:13;;;;;;;3.67;1.77;;;;;;;19.67;43.60;99402.06;4357690;32;33130;-60
2023/06/12 04:26:46;;;;;;;2.33;1.27;;;;;;;19.88;43.74;99398.69;4358440;32;33830;-60
2023/06/12 04:29:15;;;;;;;3.83;2.05;;;;;;;20.26;43.82;99398.69;4358149;32;33506;-60
2023/06/12 04:31:43;;;;;;;3.87;2.05;;;;;;;20.13;41.75;99406.63;4358863;32;33897;-60
2023/06/12 04:34:15;;;;;;;18.05;2.37;;;;;;;20.10;41.86;99398.84;4360132;32;33294;-60
2023/06/12 04:36:45;;;;;;;3.12;1.73;;;;;;;20.62;41.77;99396.09;4361159;32;34100;-60
2023/06/12 04:39:13;;;;;;;4.35;1.62;;;;;;;20.22;41.64;99394.62;4358629;32;33780;-61
2023/06/12 04:41:41;;;;;;;3.65;2.25;;;;;;;20.85;41.70;99401.41;4358683;32;34648;-61
2023/06/12 04:44:11;;;;;;;4.97;1.77;;;;;;;19.96;42.18;99403.19;4359954;32;33278;-61
2023/06/12 04:46:39;;;;;;;4.75;2.30;;;;;;;20.41;41.85;99415.81;4359904;32;34681;-61
2023/06/12 04:49:06;;;;;;;7.35;1.83;;;;;;;20.48;41.82;99418.62;4357311;32;34030;-61
2023/06/12 04:51:35;;;;;;;5.35;2.08;;;;;;;20.80;41.09;99408.44;4357372;32;34586;-61
2023/06/12 04:54:04;;;;;;;5.00;1.48;;;;;;;21.10;41.34;99415.56;4356963;32;33978;-61
2023/06/12 04:56:33;;;;;;;4.50;1.80;;;;;;;20.79;40.46;99407.63;4355594;32;34963;-61
2023/06/12 04:59:01;;;;;;;5.68;2.55;;;;;;;20.93;40.63;99411.38;4359094;32;34310;-60
2023/06/12 05:01:30;;;;;;;3.12;1.70;;;;;;;20.44;40.64;99406.47;4356655;32;33407;-60
2023/06/12 05:03:58;;;;;;;3.25;1.75;;;;;;;20.48;40.70;99407.75;4361310;32;34181;-61
2023/06/12 05:06:28;;;;;;;4.00;1.45;;;;;;;20.72;40.39;99405.84;4361467;32;34988;-61
2023/06/12 05:08:56;;;;;;;2.90;1.62;;;;;;;20.41;40.98;99414.97;4358805;32;33831;-61
2023/06/12 05:11:24;;;;;;;3.05;1.50;;;;;;;20.94;40.39;99418.50;4357706;32;33618;-61
2023/06/12 05:13:53;;;;;;;3.92;1.95;;;;;;;19.35;42.69;99416.69;4358036;32;34046;-61
2023/06/12 05:16:20;;;;;;;3.97;1.95;;;;;;;19.85;41.91;99415.34;4359885;32;34707;-60
2023/06/12 05:18:48;;;;;;;6.28;2.25;;;;;;;19.83;42.11;99424.69;4356628;32;33839;-61
2023/06/12 05:21:18;;;;;;;4.30;1.75;;;;;;;19.77;42.12;99418.12;4360147;32;34702;-61
2023/06/12 05:23:47;;;;;;;3.97;1.65;;;;;;;19.64;42.65;99410.56;4356898;32;34124;-60
2023/06/12 05:26:15;;;;;;;2.47;1.55;;;;;;;19.87;41.75;99415.16;4359709;32;34877;-61
2023/06/12 05:28:43;;;;;;;2.87;1.77;;;;;;;19.82;42.87;99409.44;4354269;32;33924;-61
2023/06/12 05:31:11;;;;;;;1.65;1.30;;;;;;;20.48;41.37;99410.47;4358952;32;33324;-61
2023/06/12 05:33:39;;;;;;;2.25;1.30;;;;;;;19.75;42.32;99412.88;4358436;32;33231;-61
2023/06/12 05:36:10;;;;;;;3.60;1.55;;;;;;;20.29;41.34;99416.47;4359199;32;33893;-61
2023/06/12 05:38:38;;;;;;;6.45;1.70;;;;;;;20.57;40.81;99408.56;4359188;32;34337;-61
2023/06/12 05:41:06;;;;;;;2.65;1.35;;;;;;;20.58;40.39;99402.09;4359625;32;33764;-62
2023/06/12 05:43:34;;;;;;;2.67;1.37;;;;;;;20.20;40.89;99413.84;4344596;32;33869;-62
2023/06/12 05:46:02;;;;;;;2.92;1.62;;;;;;;19.77;41.79;99429.84;4356446;32;33930;-60
2023/06/12 05:48:30;;;;;;;2.70;1.55;;;;;;;19.71;41.79;99422.44;4359076;32;34686;-60
2023/06/12 05:50:58;;;;;;;3.58;1.25;;;;;;;20.06;41.00;99424.66;4359456;32;33972;-59
2023/06/12 05:53:25;;;;;;;4.55;1.80;;;;;;;19.84;41.22;99427.25;4358567;32;33648;-60
2023/06/12 05:55:54;;;;;;;3.35;1.42;;;;;;;19.86;40.95;99425.19;4358863;32;33522;-60
2023/06/12 05:58:22;;;;;;;2.55;1.60;;;;;;;19.55;41.26;99427.94;4349479;32;34011;-60
2023/06/12 06:00:50;;;;;;;7.60;1.92;;;;;;;20.01;40.87;99427.94;4358402;32;34587;-60
2023/06/12 06:03:19;;;;;;;6.68;2.58;;;;;;;19.49;41.37;99436.81;4348998;32;33350;-59
2023/06/12 06:05:48;;;;;;;2.67;1.40;;;;;;;19.63;42.02;99430.59;4356205;32;33634;-60
2023/06/12 06:08:15;;;;;;;1.92;1.35;;;;;;;20.02;40.90;99433.19;4360615;32;34006;-59
2023/06/12 06:10:43;;;;;;;4.78;1.37;;;;;;;19.35;42.68;99442.97;4359708;32;33734;-60
2023/06/12 06:13:11;;;;;;;17.83;1.75;;;;;;;20.00;41.23;99437.13;4355925;32;33807;-61
2023/06/12 06:15:39;;;;;;;2.45;1.65;;;;;;;20.48;40.31;99443.09;4357609;32;34728;-61
2023/06/12 06:18:07;;;;;;;3.97;1.48;;;;;;;19.68;41.47;99449.94;4348427;32;33822;-62
2023/06/12 06:20:35;;;;;;;4.95;1.77;;;;;;;19.82;40.99;99442.88;4348017;32;33727;-61
2023/06/12 06:23:04;;;;;;;4.05;1.25;;;;;;;20.20;41.35;99442.91;4358694;32;33602;-61
2023/06/12 06:25:32;;;;;;;1.75;1.12;;;;;;;20.40;41.49;99445.91;4359375;32;33617;-61
2023/06/12 06:28:00;;;;;;;8.23;3.12;;;;;;;20.15;40.03;99437.16;4357582;32;33765;-61
2023/06/12 06:30:28;;;;;;;2.75;1.58;;;;;;;19.83;41.03;99444.53;4356525;32;33922;-61
2023/06/12 06:32:56;;;;;;;5.95;1.83;;;;;;;19.93;41.95;99442.41;4357327;32;33318;-61
2023/06/12 06:35:23;;;;;;;3.62;1.85;;;;;;;20.54;40.46;99444.28;4357960;32;34693;-61
2023/06/12 06:37:51;;;;;;;2.47;1.58;;;;;;;20.91;39.87;99446.91;4361093;32;35316;-61
2023/06/12 06:40:19;;;;;;;2.35;1.33;;;;;;;20.54;39.39;99442.41;4360737;32;33574;-61
2023/06/12 06:42:46;;;;;;;2.72;1.27;;;;;;;20.69;38.86;99445.13;4359175;32;33204;-61
2023/06/12 06:45:19;;;;;;;3.87;1.50;;;;;;;20.26;39.76;99447.59;4359333;32;33931;-61
2023/06/12 06:47:47;;;;;;;9.00;1.52;;;;;;;20.91;39.09;99446.06;4360467;32;35091;-61
2023/06/12 06:50:16;;;;;;;1.83;1.08;;;;;;;20.23;40.60;99443.38;4360787;32;34910;-61
2023/06/12 06:52:44;;;;;;;2.33;1.20;;;;;;;20.47;38.64;99457.72;4360172;32;34473;-61
2023/06/12 06:55:12;;;;;;;5.47;1.52;;;;;;;20.44;38.97;99452.66;4361135;32;33988;-61
2023/06/12 06:57:40;;;;;;;3.85;3.10;;;;;;;20.87;38.03;99444.78;4358827;32;35120;-61
2023/06/12 07:00:09;;;;;;;2.45;1.30;;;;;;;20.90;38.77;99449.84;4340759;32;33577;-61
2023/06/12 07:02:38;;;;;;;4.25;1.95;;;;;;;20.79;39.06;99451.13;4354738;32;32921;-61
2023/06/12 07:05:07;;;;;;;4.55;1.98;;;;;;;20.94;38.53;99459.28;4352981;32;33404;-61
2023/06/12 07:07:38;;;;;;;5.35;2.25;;;;;;;20.85;38.63;99453.09;4358444;32;34209;-65
2023/06/12 07:10:25;;;;;;;4.93;2.22;;;;;;;20.83;38.03;99449.72;4360680;32;33477;-62
2023/06/12 07:12:57;;;;;;;3.00;1.42;;;;;;;21.53;38.02;99452.94;4360196;32;33013;-62
2023/06/12 07:15:25;;;;;;;6.20;1.48;;;;;;;21.27;37.82;99453.44;4358800;32;33244;-62
2023/06/12 07:17:54;;;;;;;6.12;2.33;;;;;;;21.36;36.74;99455.03;4357621;32;33806;-61
2023/06/12 07:20:22;;;;;;;5.82;2.35;;;;;;;21.46;37.74;99450.13;4358258;32;33551;-61
2023/06/12 07:22:50;;;;;;;2.55;1.37;;;;;;;21.26;36.58;99454.47;4364385;32;31750;-61
2023/06/12 07:25:17;;;;;;;4.93;1.25;;;;;;;21.52;35.71;99462.97;4364188;32;33761;-61
2023/06/12 07:27:45;;;;;;;4.25;1.58;;;;;;;21.23;35.79;99446.69;4359522;32;33885;-61
2023/06/12 07:30:14;;;;;;;3.78;1.67;;;;;;;21.16;36.75;99447.44;4357786;32;33448;-61
2023/06/12 07:32:42;;;;;;;2.75;1.25;;;;;;;21.33;35.99;99447.22;4359210;32;33330;-61
2023/06/12 07:35:09;;;;;;;2.67;1.25;;;;;;;21.21;36.53;99443.31;4361222;32;33901;-61
2023/06/12 07:37:38;;;;;;;5.22;2.12;;;;;;;21.39;35.64;99443.78;4360922;32;33765;-61
2023/06/12 07:40:08;;;;;;;2.03;1.05;;;;;;;21.51;35.35;99449.53;4359927;32;33830;-61
2023/06/12 07:42:35;;;;;;;2.00;1.17;;;;;;;20.99;36.81;99451.41;4360041;32;34290;-61
2023/06/12 07:45:04;;;;;;;3.60;1.40;;;;;;;20.93;36.71;99444.84;4359835;32;33967;-60
2023/06/12 07:47:32;;;;;;;4.03;1.62;;;;;;;21.33;36.03;99444.50;4356318;32;34719;-60
2023/06/12 07:50:00;;;;;;;2.72;1.55;;;;;;;21.20;35.79;99452.50;4355513;32;92751;-60
2023/06/12 07:52:30;;;;;;;2.30;1.30;;;;;;;21.07;35.53;99445.88;4357970;32;33704;-60
2023/06/12 07:54:58;;;;;;;2.72;1.60;;;;;;;21.31;35.72;99447.41;4354948;32;33787;-61
2023/06/12 07:57:25;;;;;;;2.08;1.37;;;;;;;21.77;35.87;99447.13;4354342;32;34696;-61
2023/06/12 07:59:54;;;;;;;10.02;1.83;;;;;;;21.23;34.59;99446.69;4354559;32;33508;-61
2023/06/12 08:02:23;;;;;;;5.30;1.70;;;;;;;21.38;34.25;99444.81;4357616;32;32637;-60
2023/06/12 08:04:51;;;;;;;5.70;1.92;;;;;;;21.19;34.63;99438.06;4344461;32;33192;-61
2023/06/12 08:07:19;;;;;;;5.68;1.85;;;;;;;21.59;33.50;99439.38;4351544;32;34045;-60
2023/06/12 08:09:47;;;;;;;9.95;1.95;;;;;;;21.35;33.29;99431.59;4359496;32;33577;-60
2023/06/12 08:12:15;;;;;;;2.92;1.42;;;;;;;21.53;34.09;99434.69;4357471;32;33533;-61
2023/06/12 08:14:42;;;;;;;4.40;1.62;;;;;;;21.28;34.13;99444.22;4360072;32;33610;-61
2023/06/12 08:17:11;;;;;;;1.98;1.55;;;;;;;21.14;33.77;99435.91;4355001;32;33915;-61
2023/06/12 08:19:41;;;;;;;5.43;1.60;;;;;;;21.29;32.23;99440.50;4356695;32;33655;-61
2023/06/12 08:22:08;;;;;;;8.77;1.48;;;;;;;21.31;33.38;99441.94;4357694;32;34126;-61
2023/06/12 08:24:36;;;;;;;3.80;1.45;;;;;;;21.60;32.13;99437.50;4355827;32;33503;-61
2023/06/12 08:27:06;;;;;;;3.15;1.48;;;;;;;21.55;33.56;99429.91;4355586;32;35495;-62
2023/06/12 08:29:34;;;;;;;2.53;1.35;;;;;;;21.62;32.26;99427.25;4357843;32;33832;-62
2023/06/12 08:32:03;;;;;;;2.25;1.10;;;;;;;21.69;32.22;99432.78;4356538;32;33035;-61
2023/06/12 08:34:30;;;;;;;4.20;1.20;;;;;;;21.65;32.56;99437.78;4351679;32;33491;-62
2023/06/12 08:36:58;;;;;;;4.43;1.50;;;;;;;21.24;33.76;99441.03;4357897;32;35273;-62
2023/06/12 08:39:26;;;;;;;11.80;1.33;;;;;;;21.31;33.03;99438.41;4359461;32;34009;-62
2023/06/12 08:42:23;;;;;;;2.35;2.15;;;;;;;21.14;34.78;99435.91;4357901;32;33280;-62
2023/06/12 08:45:04;;;;;;;3.72;1.65;;;;;;;21.43;34.10;99439.63;4311332;33;33017;-61
2023/06/12 08:47:48;;;;;;;4.53;1.35;;;;;;;21.81;31.90;99433.94;4315210;33;33678;-62
2023/06/12 08:50:18;;;;;;;2.75;1.27;;;;;;;21.45;34.15;99436.72;4312353;33;33942;-62
2023/06/12 08:52:47;;;;;;;3.37;1.67;;;;;;;21.47;33.73;99437.34;4309772;33;32894;-62
2023/06/12 08:55:15;;;;;;;5.47;1.65;;;;;;;21.17;33.89;99435.53;4313473;33;33497;-62
2023/06/12 08:57:43;;;;;;;2.15;0.90;;;;;;;21.85;33.19;99446.13;4310060;33;33763;-61
2023/06/12 09:00:13;;;;;;;1.45;1.00;;;;;;;22.19;32.19;99444.59;4312602;33;34806;-62
2023/06/12 09:02:49;;;;;;;4.68;1.12;;;;;;;22.07;32.41;99445.09;4308996;33;32827;-62
2023/06/12 09:05:24;;;;;;;1.90;1.12;;;;;;;21.83;31.90;99438.16;4299331;33;33659;-62
2023/06/12 09:07:52;;;;;;;4.03;1.58;;;;;;;22.08;32.04;99429.56;4314293;33;34906;-61
2023/06/12 09:10:21;;;;;;;3.20;1.12;;;;;;;22.27;32.03;99426.19;4309585;33;34849;-62
2023/06/12 09:12:53;;;;;;;4.20;1.25;;;;;;;22.18;31.74;99437.44;4312214;33;33094;-63
2023/06/12 09:15:22;;;;;;;1.85;0.85;;;;;;;22.31;32.21;99429.34;4311693;33;33853;-62
2023/06/12 09:17:50;;;;;;;3.30;1.75;;;;;;;22.14;31.08;99425.22;4312423;33;34555;-62
2023/06/12 09:20:27;;;;;;;3.53;1.48;;;;;;;22.10;32.96;99432.94;4312117;32;33610;-62
2023/06/12 09:23:11;;;;;;;2.60;1.25;;;;;;;21.72;33.87;99429.66;4355532;32;34529;-62
2023/06/12 09:25:41;;;;;;;3.42;1.33;;;;;;;22.33;32.27;99427.28;4356677;32;33682;-63
2023/06/12 09:28:25;;;;;;;6.70;1.15;;;;;;;22.47;31.47;99436.41;4359725;32;34066;-63
2023/06/12 09:30:54;;;;;;;5.05;1.25;;;;;;;22.41;32.25;99434.50;4357751;32;33807;-62
2023/06/12 09:33:28;;;;;;;1.83;1.10;;;;;;;22.67;31.63;99442.84;4354450;32;33532;-62
2023/06/12 09:35:56;;;;;;;1.85;1.12;;;;;;;22.71;31.42;99437.81;4340929;32;34594;-61
2023/06/12 09:38:34;;;;;;;2.40;1.42;;;;;;;22.27;31.66;99428.06;4357659;32;34979;-62
2023/06/12 09:41:03;;;;;;;2.22;1.33;;;;;;;22.85;32.20;99428.66;4356530;32;33465;-63
2023/06/12 09:43:32;;;;;;;4.80;1.35;;;;;;;22.40;32.07;99433.62;4356401;32;33326;-62
2023/06/12 09:46:05;;;;;;;3.35;1.23;;;;;;;22.30;31.48;99425.78;4357575;32;34204;-62
2023/06/12 09:48:35;;;;;;;3.28;1.23;;;;;;;22.86;31.21;99427.63;4359726;32;34915;-63
2023/06/12 09:51:23;;;;;;;3.17;1.27;;;;;;;22.97;31.08;99429.81;4351474;32;34650;-62
2023/06/12 09:53:51;;;;;;;4.15;1.70;;;;;;;23.01;30.49;99433.81;4354848;32;34356;-62
2023/06/12 09:56:18;;;;;;;5.80;1.27;;;;;;;23.20;31.31;99428.66;4342231;32;34794;-62
2023/06/12 09:58:48;;;;;;;7.68;1.55;;;;;;;23.12;31.83;99424.22;4356429;32;33592;-62
2023/06/12 10:01:17;;;;;;;3.17;1.23;;;;;;;23.22;31.95;99424.66;4342101;32;34631;-65
2023/06/12 10:03:47;;;;;;;1.80;1.42;;;;;;;23.51;31.04;99430.03;4343126;32;33151;-62
2023/06/12 10:06:17;;;;;;;1.77;1.30;;;;;;;23.91;31.21;99431.78;4344985;32;34224;-65
2023/06/12 10:08:46;;;;;;;3.22;1.33;;;;;;;24.39;29.46;99430.75;4342066;32;35758;-62
2023/06/12 10:11:14;;;;;;;3.65;1.62;;;;;;;24.40;31.01;99430.53;4345313;32;34931;-62
2023/06/12 10:13:42;;;;;;;4.28;2.22;;;;;;;24.21;30.38;99434.12;4358199;32;33141;-63
2023/06/12 10:16:09;;;;;;;2.58;1.48;;;;;;;24.53;29.46;99432.44;4345048;32;34095;-62
2023/06/12 10:18:38;;;;;;;1.83;1.42;;;;;;;24.04;29.10;99430.13;4343907;32;34391;-62
2023/06/12 10:21:06;;;;;;;4.45;1.55;;;;;;;24.48;30.02;99428.66;4348110;32;34592;-63
2023/06/12 10:23:35;;;;;;;3.53;1.30;;;;;;;24.18;30.27;99431.81;4355592;32;34524;-63
2023/06/12 10:26:03;;;;;;;4.53;1.60;;;;;;;24.24;30.16;99436.44;4344187;32;34031;-62
2023/06/12 10:28:31;;;;;;;2.15;1.25;;;;;;;24.49;29.51;99419.41;4349667;32;33380;-64
2023/06/12 10:31:12;;;;;;;4.82;1.20;;;;;;;24.59;30.61;99422.53;4341560;32;34597;-63
2023/06/12 10:34:10;;;;;;;7.87;2.00;;;;;;;24.74;29.78;99414.91;4356395;32;32784;-62
2023/06/12 10:36:42;;;;;;;2.30;1.17;;;;;;;25.02;29.30;99408.31;4357465;32;33407;-63
2023/06/12 10:39:19;;;;;;;6.62;1.17;;;;;;;24.96;28.74;99420.13;4361329;32;35626;-63
2023/06/12 10:41:57;;;;;;;4.85;1.25;;;;;;;25.24;28.11;99415.19;4357726;32;33705;-62
2023/06/12 10:44:35;;;;;;;4.25;1.48;;;;;;;24.61;28.90;99410.31;4354462;32;33238;-62
2023/06/12 10:47:02;;;;;;;3.62;1.48;;;;;;;25.19;28.96;99406.78;4359889;32;33981;-63
2023/06/12 10:49:31;;;;;;;4.20;1.50;;;;;;;24.89;28.35;99401.00;4360022;32;34265;-62
2023/06/12 10:51:59;;;;;;;2.87;1.27;;;;;;;24.80;28.71;99399.53;4345867;32;34988;-63
2023/06/12 10:54:27;;;;;;;3.03;0.90;;;;;;;25.07;28.63;99403.88;4359647;32;34348;-62
2023/06/12 10:56:58;;;;;;;3.95;1.42;;;;;;;24.95;28.51;99399.28;4357906;32;33853;-63
2023/06/12 10:59:31;;;;;;;2.25;1.20;;;;;;;24.92;28.59;99397.00;4357940;32;33986;-62
2023/06/12 11:01:59;;;;;;;5.18;1.48;;;;;;;24.83;28.12;99394.47;4346270;32;35159;-62
2023/06/12 11:04:27;;;;;;;4.18;1.33;;;;;;;24.81;28.54;99401.22;4355226;32;34486;-62
2023/06/12 11:06:55;;;;;;;3.45;1.42;;;;;;;24.74;28.74;99395.75;4347737;32;33631;-62
2023/06/12 11:09:23;;;;;;;3.25;1.30;;;;;;;24.48;31.01;99398.56;4343973;32;33974;-62
2023/06/12 11:11:51;;;;;;;3.47;1.20;;;;;;;25.04;28.31;99385.16;4357575;32;33956;-62
2023/06/12 11:14:25;;;;;;;1.83;1.33;;;;;;;25.23;29.44;99394.38;4358063;32;33807;-63
2023/06/12 11:16:57;;;;;;;2.28;1.35;;;;;;;25.58;27.90;99382.97;4353262;32;34040;-63
2023/06/12 11:19:27;;;;;;;4.28;1.45;;;;;;;25.57;27.62;99378.56;4361219;32;35426;-62
2023/06/12 11:21:56;;;;;;;3.78;1.20;;;;;;;25.35;28.54;99382.69;4358541;32;33238;-62
2023/06/12 11:24:23;;;;;;;3.35;1.60;;;;;;;25.89;27.27;99384.06;4359829;32;33200;-64
2023/06/12 11:26:51;;;;;;;3.78;1.25;;;;;;;25.33;27.04;99382.94;4357605;32;33406;-63
2023/06/12 11:29:22;;;;;;;3.12;1.55;;;;;;;25.23;27.98;99377.06;4358851;32;33869;-63
2023/06/12 11:31:51;;;;;;;4.80;0.93;;;;;;;25.19;28.98;99368.44;4355839;32;33762;-62
2023/06/12 11:34:18;;;;;;;4.50;1.15;;;;;;;24.92;28.17;99375.09;4357298;32;33178;-62
2023/06/12 11:36:46;;;;;;;2.92;1.48;;;;;;;25.01;29.10;99374.63;4359800;32;34652;-63
2023/06/12 11:39:17;;;;;;;6.00;1.58;;;;;;;24.85;28.31;99375.94;4356178;32;33674;-63
2023/06/12 11:41:49;;;;;;;;;;;;;;;25.73;26.56;99378.00;4358512;32;34057;-64
2023/06/12 11:44:16;;;;;;;2.97;1.55;;;;;;;24.86;27.44;99382.25;4352703;32;33219;-64